Hovedside
METAR-TAF:

METAR-TAF

Lufthavner :

Kiruna lufthavn

Kiruna, Sverige

breddegrad: 67-49N, lengdegrad: 020-20E, høyde over havet: 452 m

Gjeldene værobservasjon

Denne rapporten ble laget for 5 timer og 25 minutter siden, klokken 22:50 UTC
Vind 2 kt fra Sør-sørvest
Temperatur -4°C
Luftfuktighet 93%
Trykk 990 hPa
Sikt 10 km eller mer

METAR: ESNQ 232250Z AUTO 20002KT 9999 BKN032/// OVC048/// M04/M05 Q0990

Tid: 06:15 (04:15 UTC)

Varsel

Denne rapporten ble laget for 7 timer og 45 minutter siden, klokken 20:30 UTC
Varsel gyldig fra 23. klokken 21 UTC til 23. klokken 23 UTC
Vind 3 kt fra skiftende retning
Sikt 10 km eller mer
ingen skyer under 1500 m og ingen bygeskyer
Sannsynlighet 40%
fra 23. klokken 21 UTC til 23. klokken 23 UTC
Sikt: 4000 m
lett snø

TAF: ESNQ 232030Z 2321/2323 VRB03KT CAVOK PROB40 2321/2323 4000 -SN

Værobservasjoner og værvarsel for over 4000 flyplasser (METAR- og TAF-rapporter).

Tilgjengelige stasjoner er representert av de røde og gule prikkene på kartet.

Hold musepekeren over prikken for å se navnet på stasjonen.

Klikk så for å se værobservasjoner og -varsler.

For å forandre kartet kan du klikke på den grønne knappen med svart kryss for å zoome inn, på den grønne knappen med strek for å zoome ut, eller på de grønne pilene for å se tilstøtende kart.


METAR-TAF: